This is the latest recevied weather packets stored in our database for station/object DG7YEO-13. If no packets are shown the sender has not sent any weather packets the latest 10 day(s).
| Time | Temp. | Humidity | Pressure | Rain* | Wind** | Luminosity | Snow |
|---|---|---|---|---|---|---|---|
| 1777452425 | 15.56° C | 39% | 1027.2 hPa | 0 mm | - | - | - |
| 1777451525 | 15° C | 42% | 1027.3 hPa | 0 mm | - | - | - |
| 1777450625 | 14.44° C | 43% | 1027.3 hPa | 0 mm | - | - | - |
| 1777449725 | 13.89° C | 43% | 1027.4 hPa | 0 mm | - | - | - |
| 1777448825 | 13.33° C | 45% | 1027.4 hPa | 0 mm | - | - | - |
| 1777447925 | 12.78° C | 46% | 1027.4 hPa | 0 mm | - | - | - |
| 1777447024 | 12.78° C | 48% | 1027.2 hPa | 0 mm | - | - | - |
| 1777446126 | 12.22° C | 50% | 1027.1 hPa | 0 mm | - | - | - |
| 1777445225 | 11.11° C | 53% | 1027 hPa | 0 mm | - | - | - |
| 1777444326 | 10.56° C | 56% | 1026.9 hPa | 0 mm | - | - | - |
| 1777443425 | 9.44° C | 59% | 1026.9 hPa | 0 mm | - | - | - |
| 1777442525 | 8.89° C | 63% | 1026.7 hPa | 0 mm | - | - | - |
| 1777441625 | 7.78° C | 65% | 1026.6 hPa | 0 mm | - | - | - |
| 1777440725 | 6.67° C | 69% | 1026.4 hPa | 0 mm | - | - | - |
| 1777439825 | 6.11° C | 69% | 1026.3 hPa | 0 mm | - | - | - |
| 1777438926 | 6.11° C | 69% | 1026.1 hPa | 0 mm | - | - | - |
| 1777438025 | 6.11° C | 69% | 1025.9 hPa | 0 mm | - | - | - |
| 1777437126 | 6.11° C | 68% | 1025.8 hPa | 0 mm | - | - | - |
| 1777436234 | 6.11° C | 67% | 1025.8 hPa | 0 mm | - | - | - |
| 1777435325 | 6.67° C | 66% | 1025.6 hPa | 0 mm | - | - | - |
| 1777434425 | 6.67° C | 65% | 1025.7 hPa | 0 mm | - | - | - |
| 1777433525 | 6.67° C | 65% | 1025.8 hPa | 0 mm | - | - | - |
| 1777432625 | 6.67° C | 64% | 1025.7 hPa | 0 mm | - | - | - |
| 1777431725 | 7.22° C | 63% | 1025.7 hPa | 0 mm | - | - | - |
| 1777430825 | 7.22° C | 62% | 1025.8 hPa | 0 mm | - | - | - |
* Rain latest hour (hover to see other rain measurements)
** Current wind speed in m/s (hover to see current wind gust speed)